Time;durP1;ratioP1;P1;durP2;ratioP2;P2;SDS_P1;SDS_P2;PMS_P1;PMS_P2;Temp;Humidity;BMP_temperature;BMP_pressure;BME280_temperature;BME280_humidity;BME280_pressure;Samples;Min_cycle;Max_cycle;Signal;HPM_P1;HPM_P2
2021/07/26 00:00:28;;;;;;;2.55;2.45;;;21.10;99.90;;;21.49;80.73;100755.09;4939197;29;20557;-69
2021/07/26 00:02:56;;;;;;;2.30;2.20;;;21.00;99.90;;;21.49;80.40;100728.19;4939348;29;20103;-69
2021/07/26 00:05:25;;;;;;;2.05;1.95;;;21.20;99.90;;;21.63;80.60;100752.59;4939382;29;20410;-70
2021/07/26 00:07:53;;;;;;;2.40;2.30;;;21.30;99.90;;;21.44;80.31;100687.19;4939492;29;20099;-69
2021/07/26 00:10:21;;;;;;;2.38;2.28;;;21.40;99.90;;;21.86;79.69;100743.34;4939573;29;20091;-69
2021/07/26 00:12:50;;;;;;;2.75;2.65;;;21.50;99.90;;;21.82;79.29;100739.94;4939213;29;20442;-69
2021/07/26 00:15:18;;;;;;;2.60;2.50;;;21.50;99.90;;;21.74;78.99;100734.03;4939170;29;20044;-69
2021/07/26 00:17:48;;;;;;;2.58;2.47;;;21.50;99.90;;;21.56;79.45;100746.63;4922041;29;20063;-69
2021/07/26 00:20:16;;;;;;;2.33;2.23;;;21.30;99.90;;;21.35;80.10;100758.50;4939248;29;20047;-69
2021/07/26 00:22:45;;;;;;;2.45;2.35;;;21.10;99.90;;;21.54;80.34;100742.31;4938705;29;20047;-69
2021/07/26 00:25:14;;;;;;;2.63;2.53;;;21.20;99.90;;;21.66;79.89;100733.56;4938974;29;20067;-69
2021/07/26 00:27:42;;;;;;;2.58;2.47;;;21.30;99.90;;;21.75;80.08;100743.88;4938924;29;20450;-69
2021/07/26 00:30:12;;;;;;;2.53;2.42;;;21.40;99.90;;;21.53;79.61;100710.94;4921821;29;20138;-70
2021/07/26 00:32:40;;;;;;;2.58;2.47;;;21.40;99.90;;;21.54;80.16;100743.16;4938825;29;20138;-69
2021/07/26 00:35:10;;;;;;;2.40;2.30;;;21.20;99.90;;;21.54;80.31;100742.31;4938727;29;20047;-69
2021/07/26 00:37:39;;;;;;;3.30;3.15;;;21.20;99.90;;;21.59;80.08;100734.84;4938593;29;20462;-69
2021/07/26 00:40:09;;;;;;;2.25;2.15;;;21.30;99.90;;;21.64;79.51;100735.47;4938806;29;20040;-69
2021/07/26 00:42:38;;;;;;;;;;;21.30;99.90;;;21.58;79.35;100708.91;4939285;29;20107;-69
2021/07/26 00:45:07;;;;;;;2.35;2.25;;;21.40;99.90;;;21.78;79.02;100729.38;4938668;29;19927;-69
2021/07/26 00:47:36;;;;;;;2.60;2.50;;;21.40;99.90;;;21.78;79.21;100727.56;4938358;29;20502;-69
2021/07/26 00:50:05;;;;;;;2.20;2.10;;;21.40;99.90;;;21.85;78.83;100725.44;4921505;29;20055;-69
2021/07/26 00:52:35;;;;;;;2.38;2.28;;;21.50;99.90;;;21.81;78.84;100718.47;4938567;29;20048;-69
2021/07/26 00:55:04;;;;;;;2.07;1.97;;;21.50;99.90;;;21.87;78.65;100723.53;4939007;29;20095;-69
2021/07/26 00:57:33;;;;;;;2.38;2.28;;;21.50;99.90;;;21.86;78.73;100719.09;4938367;29;20131;-69
2021/07/26 01:00:03;;;;;;;2.38;2.28;;;21.50;99.90;;;21.86;78.49;100719.97;4938243;29;20584;-69
2021/07/26 01:02:31;;;;;;;2.60;2.50;;;21.50;99.90;;;21.91;78.42;100715.19;4921283;29;20106;-69
2021/07/26 01:05:00;;;;;;;2.50;2.40;;;21.50;99.90;;;21.91;78.47;100725.13;4938100;29;20043;-69
2021/07/26 01:07:28;;;;;;;2.10;2.00;;;21.50;99.90;;;21.92;78.21;100716.06;4920772;29;20106;-69
2021/07/26 01:09:58;;;;;;;2.67;2.58;;;21.50;99.90;;;21.88;78.01;100703.72;4938283;29;20048;-69
2021/07/26 01:12:27;;;;;;;2.40;2.30;;;21.60;99.90;;;22.00;77.92;100717.44;4938278;29;20126;-69
2021/07/26 01:14:58;;;;;;;2.45;2.35;;;21.70;99.90;;;22.05;77.76;100718.03;4938116;29;20052;-69
2021/07/26 01:18:14;;;;;;;2.53;2.42;;;21.70;99.90;;;22.08;77.41;100712.50;4938128;29;20494;-69
2021/07/26 01:20:44;;;;;;;2.47;2.38;;;21.70;99.90;;;22.10;77.41;100717.78;4930874;29;20059;-70
2021/07/26 01:23:13;;;;;;;2.15;2.05;;;21.80;99.90;;;22.08;77.37;100717.88;4937706;29;20110;-70
2021/07/26 01:25:41;;;;;;;2.15;2.05;;;21.80;99.90;;;21.97;77.53;100701.41;4937936;29;20079;-69
2021/07/26 01:28:09;;;;;;;2.58;2.47;;;21.80;99.90;;;22.08;77.42;100715.19;4938083;29;20107;-69
2021/07/26 01:30:38;;;;;;;3.50;3.30;;;21.80;99.90;;;22.11;77.62;100720.41;4937581;29;20078;-69
2021/07/26 01:33:09;;;;;;;2.45;2.35;;;21.80;99.90;;;22.08;77.88;100708.91;4937814;29;20442;-69
2021/07/26 01:35:38;;;;;;;2.28;2.17;;;21.80;99.90;;;21.95;77.81;100700.63;4937723;29;20106;-69
2021/07/26 01:38:09;;;;;;;2.70;2.60;;;21.70;99.90;;;22.12;77.86;100727.53;4937676;29;20044;-69
2021/07/26 01:40:44;;;;;;;8.82;5.40;;;21.80;99.90;;;22.14;77.98;100720.22;4937685;29;20047;-69
2021/07/26 01:43:12;;;;;;;2.55;2.45;;;21.80;99.90;;;22.10;78.09;100729.44;4937372;29;20406;-69
2021/07/26 01:45:41;;;;;;;2.13;2.03;;;21.80;99.90;;;22.12;78.15;100729.38;4937503;29;20035;-70
2021/07/26 01:48:17;;;;;;;2.30;2.20;;;21.80;99.90;;;21.95;78.88;100726.72;4937431;29;20103;-69
2021/07/26 01:50:52;;;;;;;2.67;2.58;;;21.70;99.90;;;21.92;78.73;100721.47;4937302;29;20557;-69
2021/07/26 01:53:22;;;;;;;2.42;2.33;;;21.60;99.90;;;21.88;79.31;100723.47;4937456;29;20070;-70
2021/07/26 01:55:51;;;;;;;2.72;2.63;;;21.60;99.90;;;21.96;79.36;100732.00;4920458;29;20052;-69
2021/07/26 01:58:20;;;;;;;2.47;2.38;;;21.60;99.90;;;21.87;79.36;100734.31;4937523;29;20051;-69
2021/07/26 02:00:48;;;;;;;2.40;2.30;;;21.70;99.90;;;21.99;79.63;100739.91;4937251;29;20103;-69
2021/07/26 02:03:17;;;;;;;2.70;2.60;;;21.70;99.90;;;21.35;79.51;100621.25;4937435;29;20075;-69
2021/07/26 02:05:45;;;;;;;2.35;2.25;;;21.70;99.90;;;22.00;79.72;100721.94;4937305;29;20079;-69
2021/07/26 02:08:13;;;;;;;2.50;2.40;;;21.70;99.90;;;21.92;79.94;100725.03;4937169;29;20071;-69
2021/07/26 02:10:43;;;;;;;2.60;2.50;;;21.70;99.90;;;21.89;80.42;100725.19;4937084;29;20059;-69
2021/07/26 02:13:11;;;;;;;2.50;2.40;;;21.60;99.90;;;21.67;80.64;100721.88;4937033;29;20080;-69
2021/07/26 02:15:41;;;;;;;2.40;2.30;;;21.50;99.90;;;21.68;81.16;100728.13;4919925;29;20358;-70
2021/07/26 02:18:10;;;;;;;2.42;2.33;;;21.40;99.90;;;21.41;82.43;100731.28;4936136;29;20036;-69
2021/07/26 02:20:38;;;;;;;2.85;2.75;;;21.20;99.90;;;21.30;83.07;100717.50;4936977;29;20044;-69
2021/07/26 02:23:06;;;;;;;2.45;2.35;;;21.00;99.90;;;21.22;83.38;100724.22;4936699;29;20490;-69
2021/07/26 02:25:35;;;;;;;2.90;2.80;;;20.90;99.90;;;21.18;83.92;100722.63;4936866;29;20131;-69
2021/07/26 02:28:05;;;;;;;2.92;2.83;;;20.90;99.90;;;21.34;83.63;100724.47;4936563;29;20052;-69
2021/07/26 02:30:33;;;;;;;3.08;2.97;;;21.00;99.90;;;21.18;84.13;100718.13;4936579;29;20044;-69
2021/07/26 02:33:02;;;;;;;2.50;2.40;;;20.90;99.90;;;21.15;84.35;100720.97;4936447;29;20494;-70
2021/07/26 02:35:30;;;;;;;2.50;2.40;;;20.80;99.90;;;21.24;84.29;100722.31;4919539;29;20080;-69
2021/07/26 02:37:58;;;;;;;2.50;2.40;;;20.90;99.90;;;21.33;84.17;100724.56;4936571;29;20498;-69
2021/07/26 02:40:27;;;;;;;2.40;2.30;;;21.00;99.90;;;21.44;84.01;100732.94;4936638;29;20439;-69
2021/07/26 02:42:56;;;;;;;2.78;2.67;;;21.10;99.90;;;21.45;83.61;100729.28;4936489;29;20524;-69
2021/07/26 02:45:27;;;;;;;2.70;2.60;;;21.20;99.90;;;21.48;83.40;100723.78;4936569;29;20108;-69
2021/07/26 02:47:56;;;;;;;2.60;2.50;;;21.20;99.90;;;21.22;83.76;100702.69;4919656;29;20043;-69
2021/07/26 02:50:26;;;;;;;2.60;2.50;;;21.10;99.90;;;21.25;84.22;100724.06;4936785;29;20048;-69
2021/07/26 02:52:55;;;;;;;2.58;2.47;;;21.00;99.90;;;21.11;84.92;100723.88;4936575;29;20047;-69
2021/07/26 02:55:23;;;;;;;2.65;2.55;;;20.90;99.90;;;21.16;84.95;100729.91;4936761;29;20047;-69
2021/07/26 02:57:53;;;;;;;2.97;2.88;;;20.90;99.90;;;21.18;84.92;100728.00;4936563;29;20107;-69
2021/07/26 03:00:22;;;;;;;2.83;2.72;;;20.80;99.90;;;21.11;85.12;100731.97;4936482;29;20048;-69
2021/07/26 03:02:52;;;;;;;2.53;2.42;;;20.80;99.90;;;21.26;84.99;100725.81;4936787;29;20134;-69
2021/07/26 03:05:22;;;;;;;2.70;2.60;;;20.90;99.90;;;20.96;84.48;100657.38;4936569;29;20055;-69
2021/07/26 03:07:50;;;;;;;3.33;3.13;;;21.10;99.90;;;21.32;84.56;100730.88;4936247;29;20044;-69
2021/07/26 03:10:19;;;;;;;2.63;2.53;;;21.10;99.90;;;21.31;84.72;100729.16;4936133;29;20110;-69
2021/07/26 03:12:47;;;;;;;2.45;2.35;;;21.00;99.90;;;21.38;84.67;100736.84;4936190;29;20122;-69
2021/07/26 03:15:16;;;;;;;2.63;2.53;;;21.10;99.90;;;21.46;84.40;100739.13;4919117;29;20052;-69
2021/07/26 03:17:44;;;;;;;2.30;2.20;;;21.10;99.90;;;21.51;84.08;100745.13;4936085;29;20055;-69
2021/07/26 03:20:14;;;;;;;2.63;2.53;;;21.20;99.90;;;21.56;83.76;100751.19;4936401;29;20079;-69
2021/07/26 03:23:00;;;;;;;2.45;2.35;;;21.20;99.90;;;21.41;84.14;100751.94;4936136;29;20099;-69
2021/07/26 03:25:31;;;;;;;2.75;2.65;;;21.20;99.90;;;20.77;84.42;100640.44;4936137;29;20047;-69
2021/07/26 03:28:03;;;;;;;2.60;2.50;;;21.10;99.90;;;21.46;84.30;100748.09;4936196;29;20056;-68
2021/07/26 03:30:32;;;;;;;2.42;2.33;;;21.10;99.90;;;21.53;84.17;100730.66;4939842;29;20056;-69
2021/07/26 03:33:00;;;;;;;2.67;2.58;;;21.20;99.90;;;21.58;83.75;100741.19;4939786;29;20051;-69
2021/07/26 03:35:30;;;;;;;2.58;2.47;;;21.30;99.90;;;21.53;83.83;100754.00;4940113;29;20051;-69
2021/07/26 03:37:59;;;;;;;2.28;2.17;;;21.20;99.90;;;21.50;83.85;100752.34;4939906;29;20044;-69
2021/07/26 03:40:27;;;;;;;2.70;2.60;;;21.20;99.90;;;21.42;83.63;100722.28;4939563;29;20118;-68
2021/07/26 03:42:56;;;;;;;2.85;2.75;;;21.20;99.90;;;21.60;83.45;100755.47;4940081;29;20040;-69
2021/07/26 03:45:25;;;;;;;2.63;2.53;;;21.30;99.90;;;21.55;83.49;100728.75;4940008;29;20043;-69
2021/07/26 03:47:56;;;;;;;2.58;2.47;;;21.30;99.90;;;21.73;83.27;100750.28;4939578;29;20047;-69
2021/07/26 03:50:24;;;;;;;2.60;2.50;;;21.40;99.90;;;21.69;82.72;100741.50;4939763;29;20048;-69
2021/07/26 03:52:56;;;;;;;2.30;2.20;;;21.50;99.90;;;21.76;83.27;100748.31;4939544;29;20075;-69
2021/07/26 03:55:26;;;;;;;2.50;2.40;;;21.40;99.90;;;21.89;83.01;100748.56;4939647;29;20040;-69
2021/07/26 03:57:55;;;;;;;2.55;2.45;;;21.50;99.90;;;21.86;83.37;100755.00;4939600;29;20056;-70
2021/07/26 04:00:26;;;;;;;2.60;2.50;;;21.50;99.90;;;21.95;83.69;100754.50;4939676;29;20091;-69
2021/07/26 04:03:04;;;;;;;2.45;2.35;;;21.60;99.90;;;21.91;83.08;100750.22;4939228;29;20047;-70
2021/07/26 04:05:36;;;;;;;2.65;2.55;;;21.60;99.90;;;21.93;82.86;100750.16;4922306;29;20055;-69
2021/07/26 04:08:11;;;;;;;2.60;2.50;;;21.60;99.90;;;21.79;83.09;100734.69;4939073;29;20039;-69
2021/07/26 04:10:40;;;;;;;2.75;2.65;;;21.50;99.90;;;21.94;83.32;100749.19;4939117;29;20450;-68
2021/07/26 04:13:09;;;;;;;2.25;2.15;;;21.50;99.90;;;21.87;83.70;100754.06;4939271;29;20067;-67
2021/07/26 04:15:39;;;;;;;2.42;2.33;;;21.50;99.90;;;21.91;83.14;100752.91;4939504;29;20560;-68
2021/07/26 04:18:07;;;;;;;2.42;2.33;;;21.50;99.90;;;21.91;83.52;100747.53;4939567;29;20043;-68
2021/07/26 04:20:36;;;;;;;2.70;2.60;;;21.50;99.90;;;21.89;83.63;100749.44;4939112;29;20047;-68
2021/07/26 04:23:06;;;;;;;2.50;2.40;;;21.50;99.90;;;21.94;83.56;100752.78;4939317;29;20035;-69
2021/07/26 04:25:34;;;;;;;2.45;2.35;;;21.50;99.90;;;21.98;83.25;100757.03;4939084;29;20450;-70
2021/07/26 04:28:03;;;;;;;2.33;2.22;;;21.60;99.90;;;21.90;83.33;100755.69;4939325;29;20059;-69
2021/07/26 04:30:31;;;;;;;2.40;2.30;;;21.50;99.90;;;21.92;83.83;100753.78;4938576;29;20051;-69
2021/07/26 04:32:59;;;;;;;2.50;2.40;;;21.50;99.90;;;21.85;83.48;100726.31;4921869;29;20075;-69
2021/07/26 04:35:28;;;;;;;2.63;2.53;;;21.60;99.90;;;22.12;83.30;100753.63;4938992;29;20067;-69
2021/07/26 04:37:56;;;;;;;2.20;2.10;;;21.70;99.90;;;22.11;82.88;100747.34;4938881;29;20071;-69
2021/07/26 04:40:26;;;;;;;2.33;2.22;;;21.80;99.90;;;22.09;82.78;100751.94;4937695;29;20098;-69
2021/07/26 04:42:55;;;;;;;2.50;2.40;;;21.80;99.90;;;22.20;82.40;100746.84;4938566;29;20039;-69
2021/07/26 04:45:23;;;;;;;2.70;2.60;;;21.90;99.90;;;22.17;82.17;100748.84;4921573;29;20082;-69
2021/07/26 04:47:52;;;;;;;2.47;2.38;;;21.80;99.90;;;21.98;82.24;100727.41;4938703;29;20075;-69
2021/07/26 04:50:20;;;;;;;2.47;2.38;;;21.80;99.90;;;22.11;82.34;100751.84;4938554;29;20051;-69
2021/07/26 04:52:49;;;;;;;2.60;2.50;;;21.70;99.90;;;22.10;82.49;100751.00;4938530;29;20130;-69
2021/07/26 04:55:17;;;;;;;2.70;2.60;;;21.70;99.90;;;22.10;82.36;100742.03;4938490;29;20052;-69
2021/07/26 04:57:47;;;;;;;2.50;2.40;;;21.80;99.90;;;22.09;82.32;100751.94;4938597;29;20051;-69
2021/07/26 05:00:16;;;;;;;2.70;2.60;;;21.70;99.90;;;22.11;82.47;100747.34;4938483;29;20434;-69
2021/07/26 05:02:44;;;;;;;2.38;2.28;;;21.70;99.90;;;22.10;82.40;100747.44;4938515;29;20784;-69
2021/07/26 05:05:13;;;;;;;12.32;3.83;;;21.70;99.90;;;21.75;83.72;100746.56;4938304;29;20048;-69
2021/07/26 05:07:43;;;;;;;2.70;2.60;;;21.50;99.90;;;21.33;85.19;100746.09;4938331;29;20059;-69
2021/07/26 05:10:13;;;;;;;2.58;2.47;;;21.00;99.90;;;21.58;85.20;100754.66;4938209;29;20051;-69
2021/07/26 05:12:42;;;;;;;2.13;2.03;;;21.10;99.90;;;21.74;84.75;100754.75;4921145;29;20140;-71
2021/07/26 05:15:13;;;;;;;3.13;3.03;;;21.30;99.90;;;21.52;84.66;100760.34;4938233;29;20048;-69
2021/07/26 05:17:41;;;;;;;3.25;3.05;;;21.20;99.90;;;21.10;85.90;100760.66;4938170;29;20052;-70
2021/07/26 05:20:11;;;;;;;2.97;2.88;;;20.80;99.90;;;20.77;87.77;100774.88;4937814;29;20554;-69
2021/07/26 05:22:40;;;;;;;3.50;3.40;;;20.40;99.90;;;20.71;88.21;100775.16;4937789;29;20048;-69
2021/07/26 05:25:11;;;;;;;2.53;2.42;;;20.30;99.90;;;20.77;89.00;100762.28;4920677;29;20052;-69
2021/07/26 05:27:39;;;;;;;2.50;2.40;;;20.30;99.90;;;20.90;88.53;100746.44;4937898;29;20060;-69
2021/07/26 05:30:11;;;;;;;3.10;3.00;;;20.40;99.90;;;20.96;88.08;100755.09;4937769;29;20103;-69
2021/07/26 05:32:39;;;;;;;2.85;2.75;;;20.60;99.90;;;20.65;89.81;100755.66;4920757;29;20056;-70
2021/07/26 05:35:09;;;;;;;3.08;2.97;;;20.30;99.90;;;20.74;90.27;100753.47;4937694;29;20465;-69
2021/07/26 05:37:40;;;;;;;2.30;2.20;;;20.40;99.90;;;20.97;89.98;100767.56;4937731;29;20070;-69
2021/07/26 05:40:11;;;;;;;3.60;3.40;;;20.50;99.90;;;20.76;89.68;100768.63;4937382;29;20107;-69
2021/07/26 05:42:40;;;;;;;3.35;3.17;;;20.40;99.90;;;20.55;90.89;100767.81;4937659;29;20079;-69
2021/07/26 05:45:11;;;;;;;3.05;2.95;;;20.20;99.90;;;20.61;91.81;100770.19;4937561;29;20132;-69
2021/07/26 05:47:41;;;;;;;4.32;4.13;;;20.20;99.90;;;20.64;92.00;100759.31;4937467;29;20055;-69
2021/07/26 05:50:11;;;;;;;2.60;2.50;;;20.20;99.90;;;20.96;91.42;100759.59;4920303;29;20494;-70
2021/07/26 05:52:39;;;;;;;2.83;2.72;;;20.40;99.90;;;21.16;91.36;100746.03;4937178;29;20051;-70
2021/07/26 05:55:09;;;;;;;2.65;2.55;;;20.70;99.90;;;21.17;90.88;100737.03;4937123;29;20040;-70
2021/07/26 05:57:43;;;;;;;2.60;2.50;;;20.80;99.90;;;21.11;91.30;100745.41;4937321;29;20043;-70
2021/07/26 06:00:15;;;;;;;2.50;2.40;;;20.70;99.90;;;21.34;91.03;100742.44;4937173;29;20502;-71
2021/07/26 06:02:45;;;;;;;2.70;2.60;;;20.90;99.90;;;21.42;90.47;100749.19;4920209;29;20052;-70
2021/07/26 06:05:14;;;;;;;2.80;2.70;;;21.10;99.90;;;21.40;89.75;100734.06;4937560;29;20470;-71
2021/07/26 06:07:42;;;;;;;3.10;3.00;;;21.20;99.90;;;21.29;89.83;100764.19;4937097;29;20056;-72
2021/07/26 06:10:12;;;;;;;4.10;3.80;;;21.00;99.90;;;21.24;89.32;100763.56;4936838;29;20482;-70
2021/07/26 06:12:40;;;;;;;3.22;3.08;;;20.90;99.90;;;21.06;91.01;100763.59;4937050;29;20040;-71
2021/07/26 06:15:10;;;;;;;5.32;4.70;;;20.70;99.90;;;20.74;91.04;100742.72;4937108;29;20048;-71
2021/07/26 06:17:38;;;;;;;5.57;5.18;;;20.50;99.90;;;20.73;92.32;100770.56;4937819;29;20055;-72
2021/07/26 06:20:11;;;;;;;5.50;5.03;;;20.40;99.90;;;20.59;92.92;100776.59;4937120;29;20513;-73
2021/07/26 06:22:40;;;;;;;3.88;3.67;;;20.30;99.90;;;20.32;94.58;100772.50;4919925;29;20047;-74
2021/07/26 06:25:12;;;;;;;4.95;4.43;;;20.00;99.90;;;20.29;94.95;100788.75;4920163;29;20598;-73
2021/07/26 06:27:42;;;;;;;6.25;5.47;;;20.00;99.90;;;19.87;96.21;100786.16;4937228;29;20087;-73
2021/07/26 06:30:12;;;;;;;3.60;3.40;;;19.80;99.90;;;20.02;97.26;100777.41;4919430;29;20048;-76
2021/07/26 06:32:40;;;;;;;2.78;2.67;;;19.80;99.90;;;20.06;97.65;100738.75;4936820;29;20522;-74
2021/07/26 06:35:11;;;;;;;2.63;2.53;;;19.90;99.90;;;20.35;97.33;100764.28;4936961;29;20044;-74
2021/07/26 06:37:40;;;;;;;5.03;4.60;;;20.00;99.90;;;20.10;96.86;100802.13;4936879;29;20051;-73
2021/07/26 06:40:09;;;;;;;2.58;2.47;;;19.90;99.90;;;19.98;97.76;100794.59;4936472;29;20039;-73
2021/07/26 06:42:38;;;;;;;2.88;2.78;;;19.70;99.90;;;20.21;98.07;100797.16;4919833;29;20048;-73
2021/07/26 06:45:08;;;;;;;2.85;2.75;;;19.90;99.90;;;20.41;97.89;100804.31;4936539;29;20043;-72
2021/07/26 06:47:36;;;;;;;2.85;2.75;;;20.10;99.90;;;20.56;97.26;100801.81;4936551;29;20075;-76
2021/07/26 06:50:06;;;;;;;2.90;2.80;;;20.20;99.90;;;20.60;96.18;100794.47;4936367;29;20126;-75
2021/07/26 06:52:36;;;;;;;2.70;2.60;;;20.40;99.90;;;20.84;95.82;100805.88;4936614;29;20064;-76
2021/07/26 06:55:06;;;;;;;3.08;2.97;;;20.50;99.90;;;20.60;95.33;100795.34;4936710;29;20059;-76
2021/07/26 06:57:35;;;;;;;2.53;2.43;;;20.40;99.90;;;20.78;95.05;100814.25;4936760;29;20437;-75
2021/07/26 07:00:05;;;;;;;2.75;2.65;;;20.50;99.90;;;21.01;95.33;100816.75;4936351;29;20367;-75
2021/07/26 07:02:33;;;;;;;2.53;2.43;;;20.70;99.90;;;21.06;94.97;100810.19;4936535;29;20379;-74
2021/07/26 07:05:02;;;;;;;2.60;2.50;;;20.80;99.90;;;21.25;95.16;100827.19;4936184;29;20050;-72
2021/07/26 07:07:30;;;;;;;2.72;2.63;;;20.90;99.90;;;21.36;95.05;100824.84;4919586;29;20051;-75
2021/07/26 07:10:00;;;;;;;2.58;2.47;;;21.10;99.90;;;21.41;94.74;100809.34;4935947;29;20553;-74
2021/07/26 07:12:28;;;;;;;2.75;2.65;;;21.10;99.90;;;21.51;94.04;100809.75;4919216;29;20494;-73
2021/07/26 07:14:57;;;;;;;3.35;3.25;;;21.20;99.90;;;21.49;93.87;100809.81;4936273;29;20043;-73
2021/07/26 07:17:25;;;;;;;2.20;2.10;;;21.30;99.90;;;21.64;93.60;100802.78;4936310;29;20099;-73
2021/07/26 07:19:54;;;;;;;2.38;2.28;;;21.30;99.90;;;21.62;92.82;100810.09;4935876;29;20083;-73
2021/07/26 07:22:22;;;;;;;2.50;2.40;;;21.40;99.90;;;21.71;91.86;100800.66;4936084;29;20091;-73
2021/07/26 07:24:51;;;;;;;2.42;2.33;;;21.40;99.90;;;21.65;90.63;100798.28;4936298;29;20044;-73
2021/07/26 07:27:21;;;;;;;2.63;2.53;;;21.40;99.90;;;21.76;90.21;100798.59;4919023;29;20107;-73
2021/07/26 07:30:10;;;;;;;3.53;3.33;;;21.50;99.90;;;21.78;90.38;100797.56;4919035;29;20066;-73
2021/07/26 07:32:39;;;;;;;2.80;2.70;;;21.50;99.90;;;21.73;89.74;100788.00;4936059;29;20299;-73
2021/07/26 07:35:08;;;;;;;2.92;2.83;;;21.40;99.90;;;21.75;90.14;100767.25;4935799;29;20048;-72
2021/07/26 07:37:38;;;;;;;2.60;2.50;;;21.40;99.90;;;21.82;90.41;100784.84;4936119;29;20050;-73
2021/07/26 07:40:09;;;;;;;2.85;2.75;;;21.50;99.90;;;21.96;91.57;100777.81;4936168;29;20410;-73
2021/07/26 07:42:39;;;;;;;2.45;2.35;;;21.60;99.90;;;22.17;91.94;100803.59;4919008;29;20054;-73
2021/07/26 07:45:09;;;;;;;2.42;2.33;;;21.80;99.90;;;22.32;91.11;100808.19;4936248;29;20123;-73
2021/07/26 07:47:38;;;;;;;3.00;2.90;;;22.00;99.90;;;21.82;89.65;100729.16;4936015;29;20058;-73
2021/07/26 07:50:08;;;;;;;2.50;2.40;;;22.00;99.90;;;22.42;89.56;100812.13;4935699;29;20055;-73
2021/07/26 07:52:36;;;;;;;2.50;2.40;;;22.10;99.90;;;22.32;89.46;100780.34;4935573;29;20048;-73
2021/07/26 07:55:07;;;;;;;2.30;2.20;;;22.20;99.90;;;22.56;89.02;100824.84;4936200;29;20180;-72
2021/07/26 07:57:36;;;;;;;2.30;2.20;;;22.40;99.90;;;22.64;89.53;100832.56;4919057;29;20059;-73
2021/07/26 08:00:08;;;;;;;2.45;2.35;;;22.40;99.90;;;22.36;89.82;100780.09;4935818;29;20079;-73
2021/07/26 08:02:37;;;;;;;2.58;2.47;;;22.40;99.90;;;22.57;88.89;100821.22;4935760;29;20048;-73
2021/07/26 08:05:06;;;;;;;2.50;2.40;;;22.40;99.90;;;22.77;88.28;100833.63;4935929;29;20048;-73
2021/07/26 08:07:35;;;;;;;2.42;2.33;;;22.50;99.90;;;22.88;89.44;100840.16;4935937;29;20048;-73
2021/07/26 08:10:05;;;;;;;2.40;2.30;;;22.60;99.90;;;22.94;88.84;100842.53;4918957;29;20082;-74
2021/07/26 08:12:33;;;;;;;2.40;2.30;;;22.70;99.90;;;22.86;86.19;100842.06;4918881;29;20059;-73
2021/07/26 08:15:02;;;;;;;2.47;2.35;;;22.60;99.90;;;22.82;86.39;100828.88;4919870;29;20058;-73
2021/07/26 08:17:32;;;;;;;2.30;2.20;;;22.70;99.90;;;22.81;83.58;100836.06;4939408;29;20052;-73
2021/07/26 08:20:00;;;;;;;2.38;2.28;;;22.70;99.90;;;22.96;84.21;100848.72;4939689;29;20062;-74
2021/07/26 08:22:29;;;;;;;2.30;2.20;;;22.70;99.90;;;23.02;82.72;100842.09;4938897;29;20099;-73
2021/07/26 08:24:57;;;;;;;2.10;2.00;;;22.70;99.90;;;23.09;83.13;100824.63;4938890;29;20047;-73
2021/07/26 08:27:26;;;;;;;2.60;2.50;;;22.80;99.90;;;23.29;84.77;100832.44;4938814;29;20055;-74
2021/07/26 08:29:54;;;;;;;2.10;2.00;;;23.00;99.90;;;23.40;82.69;100831.88;4938773;29;20612;-73
2021/07/26 08:32:23;;;;;;;2.08;1.98;;;23.10;99.90;;;23.42;83.16;100813.75;4921642;29;20505;-74
2021/07/26 08:34:53;;;;;;;2.17;2.08;;;23.20;99.90;;;23.45;81.98;100824.34;4938591;29;20114;-74
2021/07/26 08:37:31;;;;;;;2.00;1.90;;;23.30;99.90;;;23.56;80.34;100816.50;4921739;29;20442;-73
2021/07/26 08:40:02;;;;;;;2.13;2.03;;;23.30;99.90;;;23.68;81.05;100819.34;4938814;29;20131;-73
2021/07/26 08:42:31;;;;;;;2.10;2.00;;;23.40;99.90;;;23.88;81.26;100813.66;4938775;29;20055;-74
2021/07/26 08:44:59;;;;;;;1.90;1.85;;;23.60;99.90;;;23.54;77.59;100740.97;4938653;29;20048;-73
2021/07/26 08:47:29;;;;;;;2.10;2.00;;;23.70;99.90;;;24.15;78.32;100822.81;4938816;29;20048;-74
2021/07/26 08:50:05;;;;;;;1.80;1.80;;;23.90;99.90;;;24.36;79.49;100823.31;4921497;29;20397;-73
2021/07/26 08:52:35;;;;;;;2.63;2.53;;;24.10;99.90;;;24.57;78.75;100829.22;4938562;29;20045;-73
2021/07/26 08:55:05;;;;;;;1.98;1.88;;;24.40;99.90;;;24.64;78.42;100812.50;4921442;29;20106;-73
2021/07/26 08:57:36;;;;;;;1.70;1.70;;;24.60;99.90;;;24.63;73.48;100835.13;4938116;29;20493;-73
2021/07/26 09:00:07;;;;;;;2.30;2.20;;;24.50;99.90;;;24.63;72.80;100843.25;4938485;29;20044;-73
2021/07/26 09:02:49;;;;;;;1.60;1.60;;;24.50;99.90;;;24.51;74.31;100819.66;4938175;29;20071;-73
2021/07/26 09:05:20;;;;;;;2.33;2.22;;;24.40;99.90;;;24.64;73.25;100817.06;4938292;29;20043;-73
2021/07/26 09:07:49;;;;;;;;;;;24.60;99.90;;;24.85;73.09;100834.69;4921631;29;20048;-73
2021/07/26 09:10:20;;;;;;;2.88;2.65;;;24.70;99.90;;;24.30;71.55;100833.63;4938520;29;20030;-72
2021/07/26 09:12:52;;;;;;;2.95;2.75;;;24.30;99.90;;;23.45;73.01;100825.25;4920773;29;20091;-72
2021/07/26 09:15:28;;;;;;;2.30;2.20;;;23.40;99.90;;;23.53;73.96;100827.50;4938223;29;20409;-72
2021/07/26 09:17:58;;;;;;;2.45;2.35;;;23.20;99.90;;;23.50;73.71;100806.06;4938113;29;20107;-72
2021/07/26 09:20:29;;;;;;;2.78;2.67;;;23.20;99.90;;;23.36;72.58;100828.47;4937981;29;20058;-71
2021/07/26 09:23:09;;;;;;;2.22;2.13;;;23.20;99.90;;;23.44;72.13;100839.69;4937862;29;20056;-71
2021/07/26 09:25:39;;;;;;;2.40;2.30;;;23.10;99.90;;;23.80;73.46;100842.94;4921035;29;20056;-71
2021/07/26 09:28:11;;;;;;;2.15;2.05;;;23.40;99.90;;;24.02;73.97;100840.72;4937317;29;20110;-71
2021/07/26 09:30:43;;;;;;;3.28;2.92;;;23.60;99.90;;;24.31;74.05;100848.91;4937960;29;20047;-71
2021/07/26 09:33:27;;;;;;;2.00;1.90;;;24.00;99.90;;;24.35;69.42;100855.88;4937647;29;20093;-72
2021/07/26 09:36:13;;;;;;;2.97;2.83;;;24.10;99.90;;;24.09;68.54;100844.81;4937866;29;20099;-71
2021/07/26 09:38:44;;;;;;;2.15;2.05;;;23.90;99.90;;;24.12;69.86;100851.84;4937792;29;20044;-72
2021/07/26 09:41:13;;;;;;;2.08;1.98;;;23.80;99.90;;;24.34;69.27;100852.28;4920574;29;20553;-71
2021/07/26 09:43:42;;;;;;;2.30;2.20;;;24.10;99.90;;;24.07;68.77;100803.50;4920539;29;20055;-71
2021/07/26 09:46:24;;;;;;;2.33;2.22;;;24.10;99.90;;;24.20;69.83;100846.84;4937558;29;20106;-72
2021/07/26 09:49:08;;;;;;;2.40;2.30;;;23.90;99.90;;;24.18;68.43;100828.03;4937341;29;20043;-73
2021/07/26 09:51:39;;;;;;;2.22;2.13;;;24.00;99.90;;;24.51;67.26;100852.13;4937454;29;20044;-71
2021/07/26 09:54:09;;;;;;;2.47;2.38;;;24.30;99.90;;;24.74;68.10;100848.00;4937466;29;20047;-71
2021/07/26 09:56:38;;;;;;;2.10;2.00;;;24.40;99.90;;;25.16;69.48;100845.28;4920605;29;20050;-71
2021/07/26 09:59:06;;;;;;;2.35;2.25;;;24.90;99.90;;;25.51;68.18;100841.13;4937093;29;20044;-71
2021/07/26 10:01:35;;;;;;;2.28;2.00;;;25.30;99.90;;;25.76;68.39;100845.78;4937289;29;20051;-71
2021/07/26 10:04:04;;;;;;;1.80;1.80;;;25.50;99.90;;;25.88;68.32;100840.38;4937588;29;20055;-71
2021/07/26 10:06:33;;;;;;;9.15;8.63;;;25.70;99.90;;;26.17;68.43;100841.13;4937230;29;20131;-71
2021/07/26 10:09:03;;;;;;;1.60;1.60;;;26.00;99.90;;;26.27;65.94;100844.94;4937154;29;20047;-72
2021/07/26 10:11:32;;;;;;;1.60;1.60;;;26.10;99.90;;;26.35;66.12;100842.56;4936983;29;20044;-71
2021/07/26 10:14:01;;;;;;;1.60;1.60;;;26.20;99.90;;;26.43;66.37;100840.19;4919752;29;20044;-71
2021/07/26 10:16:30;;;;;;;1.58;1.58;;;26.30;99.90;;;26.22;64.60;100848.94;4937265;29;20052;-72
2021/07/26 10:18:59;;;;;;;1.52;1.52;;;26.10;99.90;;;26.21;64.13;100844.53;4936898;29;20076;-71
2021/07/26 10:21:28;;;;;;;1.42;1.42;;;26.00;99.90;;;26.26;64.53;100835.09;4937001;29;20079;-71
2021/07/26 10:24:04;;;;;;;1.48;1.48;;;26.10;99.90;;;26.34;64.46;100846.28;4936894;29;20107;-71